»·PEaware :: SCX154 KPDX-KSEA

SCX154 :: KPDX-KSEA

FLIGHT INFORMATION

Flight Status: Arrived
Operator:
Sun Country Airlines
More flights by this operator :: More flights under this callsign
Pilot: Ben F. (13029)
Aircraft: BOEING 737-800
(B738)
More flights by this aircraft type
Origin: KPDX Portland Intl
United States
Destination: KSEA Seattle-Tacoma Intl
United States
More flights between these airports :: More routes between these airports
Route: +PTLD1 COUGA KRIEG HAWKZ7
File this flight plan on PilotEdge
Remarks: RMK / SIMBRIEF
Altitude:
(Current/Filed)
20,000ft
Speed:
(Current/Filed)
345kts
Departed: 04-Apr-20 06:44 PM
Arrived: 04-Apr-20 07:13 PM
Distance/Time
Traveled:
112nm/0:29
Distance/Time
To Go:
Arrived

Flight Plot

Page will automatically refresh every two minutes.

Flight plan parsing failed; only flown route is shown


Map Options




Map Legend


Flown Route
Filed Route
Departure Airport
Arrival Airport
Navaid (VOR, NDB)
Fix

Horizontal Profiles

Position Reports

Time Latitude Longitude Heading Altitude Ground
Speed
04-Apr-20 18:16 45.588616 -122.596936 5 40ft 0kts
04-Apr-20 18:17 45.588616 -122.596936 5 40ft 0kts
04-Apr-20 18:18 45.588616 -122.596936 5 40ft 0kts
04-Apr-20 18:19 45.588616 -122.596936 5 40ft 0kts
04-Apr-20 18:20 45.588616 -122.596936 5 40ft 0kts
04-Apr-20 18:21 45.588616 -122.596936 5 40ft 0kts
04-Apr-20 18:22 45.588616 -122.596936 5 40ft 0kts
04-Apr-20 18:23 45.588616 -122.596936 5 40ft 0kts
04-Apr-20 18:24 45.588616 -122.596936 5 40ft 0kts
04-Apr-20 18:25 45.588616 -122.596936 5 40ft 0kts
04-Apr-20 18:26 45.588616 -122.596936 5 40ft 0kts
04-Apr-20 18:27 45.588616 -122.596936 5 40ft 0kts
04-Apr-20 18:28 45.588616 -122.596936 5 40ft 0kts
04-Apr-20 18:29 45.588616 -122.596936 5 40ft 0kts
04-Apr-20 18:30 45.588616 -122.596936 5 40ft 0kts
04-Apr-20 18:31 45.588616 -122.596936 5 40ft 0kts
04-Apr-20 18:32 45.588616 -122.596936 5 40ft 0kts
04-Apr-20 18:34 45.588500 -122.596966 16 40ft 2kts
04-Apr-20 18:35 45.587980 -122.597129 345 40ft 1kts
04-Apr-20 18:36 45.587861 -122.596960 300 39ft 0kts
04-Apr-20 18:37 45.587861 -122.596960 300 39ft 0kts
04-Apr-20 18:38 45.587861 -122.596960 300 39ft 0kts
04-Apr-20 18:39 45.587871 -122.596983 300 39ft 1kts
04-Apr-20 18:40 45.589950 -122.601710 22 40ft 16kts
04-Apr-20 18:41 45.591827 -122.598670 31 40ft 14kts
04-Apr-20 18:42 45.593884 -122.596212 34 40ft 0kts
04-Apr-20 18:43 45.594262 -122.595832 34 40ft 4kts
04-Apr-20 18:44 45.590571 -122.584746 118 40ft 134kts
04-Apr-20 18:45 45.568204 -122.527292 119 2809ft 167kts
04-Apr-20 18:46 45.548483 -122.464869 88 5603ft 179kts
04-Apr-20 18:47 45.596670 -122.448338 341 7621ft 249kts
04-Apr-20 18:48 45.676193 -122.484734 340 9205ft 339kts
04-Apr-20 18:49 45.768189 -122.527076 339 12304ft 359kts
04-Apr-20 18:50 45.865569 -122.572070 339 15269ft 375kts
04-Apr-20 18:51 45.966357 -122.618826 339 17964ft 390kts
04-Apr-20 18:52 46.071723 -122.667924 339 19708ft 406kts
04-Apr-20 18:52 46.161862 -122.692446 352 19728ft 404kts
04-Apr-20 18:54 46.291870 -122.716583 350 19726ft 405kts
04-Apr-20 18:55 46.403478 -122.725235 356 19282ft 390kts
04-Apr-20 18:55 46.491051 -122.728324 356 17504ft 386kts
04-Apr-20 18:56 46.597337 -122.732152 356 15303ft 378kts
04-Apr-20 18:58 46.717603 -122.736494 356 12720ft 354kts
04-Apr-20 18:58 46.794922 -122.719722 29 11952ft 340kts
04-Apr-20 18:59 46.866535 -122.638440 44 11508ft 312kts
04-Apr-20 19:00 46.928627 -122.550324 46 9793ft 307kts
04-Apr-20 19:01 46.987710 -122.465207 35 8752ft 276kts
04-Apr-20 19:02 47.052812 -122.409129 31 6328ft 262kts
04-Apr-20 19:03 47.112388 -122.358707 31 5916ft 245kts
04-Apr-20 19:04 47.167902 -122.332167 17 5143ft 177kts
04-Apr-20 19:05 47.184561 -122.325789 17 4691ft 165kts
04-Apr-20 19:07 47.287089 -122.309194 2 2751ft 142kts
04-Apr-20 19:08 47.324721 -122.309058 1 2186ft 133kts
04-Apr-20 19:09 47.362933 -122.308548 358 1617ft 141kts
04-Apr-20 19:10 47.400912 -122.308106 358 916ft 135kts
04-Apr-20 19:11 47.437167 -122.308010 359 362ft 100kts
04-Apr-20 19:12 47.443974 -122.306345 5 391ft 5kts
04-Apr-20 19:13 47.448069 -122.305550 75 404ft 20kts
04-Apr-20 19:14 47.447866 -122.303578 51 402ft 5kts
04-Apr-20 19:15 47.448151 -122.303190 39 403ft 0kts
04-Apr-20 19:16 47.448151 -122.303190 39 403ft 0kts

Navigation Log

Ident Type
Flight plan parsing failed, navigation log unavailable